<?xml version="1.0" encoding="UTF-8" standalone="no" ?>
<gpx xmlns="http://www.topografix.com/GPX/1/1" xmlns:xsi="http://www.w3.org/2001/XMLSchema-instance" xsi:schemaLocation="http://www.topografix.com/GPX/1/1 http://www.topografix.com/GPX/1/1/gpx.xsd" version="1.1" creator="VisuGPX - https://www.visugpx.com">
  <metadata>
    <name>Single du Bresson</name>
    <desc><![CDATA[Single technique nettoyé depuis le printemps 2012]]></desc>
  </metadata>
  <trk>
    <name><![CDATA[19 nov. 2012 13:19:03]]></name>
    <cmt><![CDATA[19 nov. 2012 13:19:03]]></cmt>
    <trkseg>
  </trk>
  <trk>
    <name><![CDATA[19 nov. 2012 13:19:38]]></name>
    <cmt><![CDATA[19 nov. 2012 13:19:38]]></cmt>
    <trkseg>
      <trkpt lat="45.37717" lon="5.92043">
        <ele>880.3</ele>
      </trkpt>
      <trkpt lat="45.37712" lon="5.92049">
        <ele>874</ele>
        <time>2012-11-19T12:20:03Z</time>
      </trkpt>
      <trkpt lat="45.3771" lon="5.92046">
        <ele>875</ele>
        <time>2012-11-19T12:23:36Z</time>
      </trkpt>
      <trkpt lat="45.37707" lon="5.9204">
        <ele>876</ele>
        <time>2012-11-19T12:23:45Z</time>
      </trkpt>
      <trkpt lat="45.37758" lon="5.92319">
        <ele>853</ele>
        <time>2012-11-19T12:26:54Z</time>
      </trkpt>
      <trkpt lat="45.37731" lon="5.92324">
        <ele>843</ele>
        <time>2012-11-19T12:27:36Z</time>
      </trkpt>
      <trkpt lat="45.37665" lon="5.9236">
        <ele>824</ele>
        <time>2012-11-19T12:28:07Z</time>
      </trkpt>
      <trkpt lat="45.37664" lon="5.92366">
        <ele>824</ele>
        <time>2012-11-19T12:28:11Z</time>
      </trkpt>
      <trkpt lat="45.3766" lon="5.92374">
        <ele>820</ele>
        <time>2012-11-19T12:28:26Z</time>
      </trkpt>
      <trkpt lat="45.37654" lon="5.92379">
        <ele>819</ele>
        <time>2012-11-19T12:28:29Z</time>
      </trkpt>
      <trkpt lat="45.37649" lon="5.92385">
        <ele>819</ele>
        <time>2012-11-19T12:28:31Z</time>
      </trkpt>
      <trkpt lat="45.37644" lon="5.92388">
        <ele>818</ele>
        <time>2012-11-19T12:28:33Z</time>
      </trkpt>
      <trkpt lat="45.37638" lon="5.92391">
        <ele>817</ele>
        <time>2012-11-19T12:28:36Z</time>
      </trkpt>
      <trkpt lat="45.37634" lon="5.92388">
        <ele>816</ele>
        <time>2012-11-19T12:28:38Z</time>
      </trkpt>
      <trkpt lat="45.37636" lon="5.92388">
        <ele>812</ele>
        <time>2012-11-19T12:28:48Z</time>
      </trkpt>
      <trkpt lat="45.37641" lon="5.92389">
        <ele>813</ele>
        <time>2012-11-19T12:28:50Z</time>
      </trkpt>
      <trkpt lat="45.37646" lon="5.9239">
        <ele>813</ele>
        <time>2012-11-19T12:28:52Z</time>
      </trkpt>
      <trkpt lat="45.37651" lon="5.92393">
        <ele>812</ele>
        <time>2012-11-19T12:28:56Z</time>
      </trkpt>
      <trkpt lat="45.37656" lon="5.924">
        <ele>812</ele>
        <time>2012-11-19T12:28:58Z</time>
      </trkpt>
      <trkpt lat="45.3766" lon="5.92406">
        <ele>811</ele>
        <time>2012-11-19T12:29:00Z</time>
      </trkpt>
      <trkpt lat="45.37662" lon="5.92414">
        <ele>811</ele>
        <time>2012-11-19T12:29:02Z</time>
      </trkpt>
      <trkpt lat="45.37663" lon="5.92421">
        <ele>811</ele>
        <time>2012-11-19T12:29:03Z</time>
      </trkpt>
      <trkpt lat="45.37662" lon="5.92432">
        <ele>810</ele>
        <time>2012-11-19T12:29:05Z</time>
      </trkpt>
      <trkpt lat="45.37659" lon="5.9244">
        <ele>808</ele>
        <time>2012-11-19T12:29:07Z</time>
      </trkpt>
      <trkpt lat="45.37654" lon="5.92442">
        <ele>808</ele>
        <time>2012-11-19T12:29:09Z</time>
      </trkpt>
      <trkpt lat="45.37649" lon="5.92439">
        <ele>807</ele>
        <time>2012-11-19T12:29:11Z</time>
      </trkpt>
      <trkpt lat="45.37646" lon="5.92434">
        <ele>807</ele>
        <time>2012-11-19T12:29:12Z</time>
      </trkpt>
      <trkpt lat="45.37641" lon="5.92433">
        <ele>806</ele>
        <time>2012-11-19T12:29:15Z</time>
      </trkpt>
      <trkpt lat="45.37636" lon="5.92441">
        <ele>806</ele>
        <time>2012-11-19T12:29:18Z</time>
      </trkpt>
      <trkpt lat="45.37633" lon="5.92445">
        <ele>805</ele>
        <time>2012-11-19T12:29:20Z</time>
      </trkpt>
      <trkpt lat="45.37627" lon="5.92445">
        <ele>803</ele>
        <time>2012-11-19T12:29:24Z</time>
      </trkpt>
      <trkpt lat="45.37622" lon="5.92444">
        <ele>799</ele>
        <time>2012-11-19T12:29:28Z</time>
      </trkpt>
      <trkpt lat="45.37619" lon="5.92449">
        <ele>798</ele>
        <time>2012-11-19T12:29:31Z</time>
      </trkpt>
      <trkpt lat="45.37614" lon="5.92454">
        <ele>796</ele>
        <time>2012-11-19T12:29:34Z</time>
      </trkpt>
      <trkpt lat="45.37612" lon="5.9246">
        <ele>794</ele>
        <time>2012-11-19T12:29:41Z</time>
      </trkpt>
      <trkpt lat="45.37616" lon="5.92464">
        <ele>792</ele>
        <time>2012-11-19T12:29:44Z</time>
      </trkpt>
      <trkpt lat="45.37622" lon="5.92468">
        <ele>791</ele>
        <time>2012-11-19T12:29:47Z</time>
      </trkpt>
      <trkpt lat="45.37624" lon="5.92475">
        <ele>788</ele>
        <time>2012-11-19T12:29:52Z</time>
      </trkpt>
      <trkpt lat="45.37627" lon="5.92482">
        <ele>786</ele>
        <time>2012-11-19T12:29:56Z</time>
      </trkpt>
      <trkpt lat="45.37632" lon="5.9248">
        <ele>784</ele>
        <time>2012-11-19T12:30:02Z</time>
      </trkpt>
      <trkpt lat="45.37631" lon="5.92489">
        <ele>780</ele>
        <time>2012-11-19T12:30:31Z</time>
      </trkpt>
      <trkpt lat="45.37631" lon="5.92496">
        <ele>779</ele>
        <time>2012-11-19T12:30:34Z</time>
      </trkpt>
      <trkpt lat="45.37632" lon="5.92507">
        <ele>774</ele>
        <time>2012-11-19T12:30:41Z</time>
      </trkpt>
      <trkpt lat="45.37629" lon="5.92512">
        <ele>769</ele>
        <time>2012-11-19T12:30:56Z</time>
      </trkpt>
      <trkpt lat="45.37625" lon="5.92509">
        <ele>768</ele>
        <time>2012-11-19T12:31:02Z</time>
      </trkpt>
      <trkpt lat="45.37629" lon="5.92507">
        <ele>768</ele>
        <time>2012-11-19T12:31:52Z</time>
      </trkpt>
      <trkpt lat="45.37633" lon="5.92511">
        <ele>767</ele>
        <time>2012-11-19T12:32:22Z</time>
      </trkpt>
      <trkpt lat="45.3763" lon="5.9252">
        <ele>768</ele>
        <time>2012-11-19T12:32:25Z</time>
      </trkpt>
      <trkpt lat="45.37628" lon="5.92526">
        <ele>769</ele>
        <time>2012-11-19T12:32:27Z</time>
      </trkpt>
      <trkpt lat="45.37626" lon="5.92535">
        <ele>770</ele>
        <time>2012-11-19T12:32:30Z</time>
      </trkpt>
      <trkpt lat="45.37624" lon="5.92541">
        <ele>770</ele>
        <time>2012-11-19T12:32:32Z</time>
      </trkpt>
      <trkpt lat="45.37621" lon="5.92547">
        <ele>771</ele>
        <time>2012-11-19T12:32:34Z</time>
      </trkpt>
      <trkpt lat="45.37618" lon="5.92554">
        <ele>771</ele>
        <time>2012-11-19T12:32:36Z</time>
      </trkpt>
      <trkpt lat="45.37615" lon="5.92562">
        <ele>772</ele>
        <time>2012-11-19T12:32:38Z</time>
      </trkpt>
      <trkpt lat="45.37612" lon="5.92572">
        <ele>773</ele>
        <time>2012-11-19T12:32:40Z</time>
      </trkpt>
      <trkpt lat="45.3761" lon="5.92578">
        <ele>774</ele>
        <time>2012-11-19T12:32:41Z</time>
      </trkpt>
      <trkpt lat="45.37607" lon="5.9259">
        <ele>775</ele>
        <time>2012-11-19T12:32:43Z</time>
      </trkpt>
      <trkpt lat="45.37605" lon="5.92602">
        <ele>776</ele>
        <time>2012-11-19T12:32:45Z</time>
      </trkpt>
      <trkpt lat="45.37603" lon="5.92612">
        <ele>777</ele>
        <time>2012-11-19T12:32:47Z</time>
      </trkpt>
      <trkpt lat="45.37601" lon="5.92621">
        <ele>777</ele>
        <time>2012-11-19T12:32:49Z</time>
      </trkpt>
      <trkpt lat="45.37599" lon="5.92627">
        <ele>777</ele>
        <time>2012-11-19T12:32:50Z</time>
      </trkpt>
      <trkpt lat="45.37595" lon="5.92635">
        <ele>777</ele>
        <time>2012-11-19T12:32:52Z</time>
      </trkpt>
      <trkpt lat="45.37593" lon="5.92641">
        <ele>778</ele>
        <time>2012-11-19T12:32:54Z</time>
      </trkpt>
      <trkpt lat="45.3759" lon="5.92649">
        <ele>778</ele>
        <time>2012-11-19T12:32:57Z</time>
      </trkpt>
      <trkpt lat="45.37587" lon="5.92655">
        <ele>778</ele>
        <time>2012-11-19T12:33:00Z</time>
      </trkpt>
      <trkpt lat="45.37585" lon="5.92662">
        <ele>777</ele>
        <time>2012-11-19T12:33:03Z</time>
      </trkpt>
      <trkpt lat="45.37578" lon="5.92684">
        <ele>765</ele>
        <time>2012-11-19T12:33:28Z</time>
      </trkpt>
      <trkpt lat="45.3758" lon="5.92691">
        <ele>763</ele>
        <time>2012-11-19T12:33:32Z</time>
      </trkpt>
      <trkpt lat="45.37575" lon="5.92689">
        <ele>760</ele>
        <time>2012-11-19T12:33:40Z</time>
      </trkpt>
      <trkpt lat="45.37577" lon="5.92679">
        <ele>759</ele>
        <time>2012-11-19T12:33:43Z</time>
      </trkpt>
      <trkpt lat="45.37572" lon="5.92684">
        <ele>756</ele>
        <time>2012-11-19T12:33:50Z</time>
      </trkpt>
      <trkpt lat="45.37568" lon="5.92687">
        <ele>754</ele>
        <time>2012-11-19T12:33:52Z</time>
      </trkpt>
      <trkpt lat="45.37563" lon="5.92691">
        <ele>752</ele>
        <time>2012-11-19T12:33:54Z</time>
      </trkpt>
      <trkpt lat="45.37559" lon="5.92694">
        <ele>751</ele>
        <time>2012-11-19T12:33:55Z</time>
      </trkpt>
      <trkpt lat="45.37553" lon="5.92696">
        <ele>749</ele>
        <time>2012-11-19T12:33:57Z</time>
      </trkpt>
      <trkpt lat="45.37548" lon="5.92699">
        <ele>747</ele>
        <time>2012-11-19T12:33:59Z</time>
      </trkpt>
      <trkpt lat="45.37544" lon="5.92702">
        <ele>745</ele>
        <time>2012-11-19T12:34:02Z</time>
      </trkpt>
      <trkpt lat="45.37544" lon="5.9271">
        <ele>742</ele>
        <time>2012-11-19T12:34:10Z</time>
      </trkpt>
      <trkpt lat="45.37544" lon="5.92717">
        <ele>741</ele>
        <time>2012-11-19T12:34:13Z</time>
      </trkpt>
      <trkpt lat="45.37544" lon="5.92724">
        <ele>741</ele>
        <time>2012-11-19T12:34:17Z</time>
      </trkpt>
      <trkpt lat="45.37541" lon="5.92732">
        <ele>741</ele>
        <time>2012-11-19T12:34:22Z</time>
      </trkpt>
      <trkpt lat="45.37537" lon="5.92744">
        <ele>740</ele>
        <time>2012-11-19T12:34:26Z</time>
      </trkpt>
      <trkpt lat="45.3753" lon="5.9275">
        <ele>734</ele>
        <time>2012-11-19T12:34:58Z</time>
      </trkpt>
      <trkpt lat="45.37527" lon="5.92756">
        <ele>734</ele>
        <time>2012-11-19T12:35:01Z</time>
      </trkpt>
      <trkpt lat="45.37523" lon="5.92762">
        <ele>733</ele>
        <time>2012-11-19T12:35:04Z</time>
      </trkpt>
      <trkpt lat="45.37519" lon="5.92765">
        <ele>733</ele>
        <time>2012-11-19T12:35:08Z</time>
      </trkpt>
      <trkpt lat="45.37519" lon="5.92772">
        <ele>732</ele>
        <time>2012-11-19T12:35:13Z</time>
      </trkpt>
      <trkpt lat="45.37514" lon="5.92779">
        <ele>730</ele>
        <time>2012-11-19T12:35:15Z</time>
      </trkpt>
      <trkpt lat="45.37505" lon="5.92789">
        <ele>722</ele>
        <time>2012-11-19T12:35:22Z</time>
      </trkpt>
      <trkpt lat="45.37505" lon="5.92796">
        <ele>721</ele>
        <time>2012-11-19T12:35:26Z</time>
      </trkpt>
      <trkpt lat="45.37503" lon="5.92801">
        <ele>713</ele>
        <time>2012-11-19T12:36:19Z</time>
      </trkpt>
      <trkpt lat="45.375" lon="5.92805">
        <ele>711</ele>
        <time>2012-11-19T12:36:22Z</time>
      </trkpt>
      <trkpt lat="45.37496" lon="5.92809">
        <ele>709</ele>
        <time>2012-11-19T12:36:25Z</time>
      </trkpt>
      <trkpt lat="45.3749" lon="5.92811">
        <ele>708</ele>
        <time>2012-11-19T12:36:27Z</time>
      </trkpt>
      <trkpt lat="45.37484" lon="5.92814">
        <ele>707</ele>
        <time>2012-11-19T12:36:34Z</time>
      </trkpt>
      <trkpt lat="45.37481" lon="5.92818">
        <ele>704</ele>
        <time>2012-11-19T12:37:17Z</time>
      </trkpt>
      <trkpt lat="45.37485" lon="5.92823">
        <ele>702</ele>
        <time>2012-11-19T12:37:48Z</time>
      </trkpt>
      <trkpt lat="45.3749" lon="5.92827">
        <ele>702</ele>
        <time>2012-11-19T12:37:51Z</time>
      </trkpt>
      <trkpt lat="45.37493" lon="5.92833">
        <ele>700</ele>
        <time>2012-11-19T12:37:54Z</time>
      </trkpt>
      <trkpt lat="45.37491" lon="5.92838">
        <ele>699</ele>
        <time>2012-11-19T12:37:59Z</time>
      </trkpt>
      <trkpt lat="45.37484" lon="5.92842">
        <ele>699</ele>
        <time>2012-11-19T12:38:04Z</time>
      </trkpt>
      <trkpt lat="45.37483" lon="5.92851">
        <ele>698</ele>
        <time>2012-11-19T12:38:32Z</time>
      </trkpt>
      <trkpt lat="45.37482" lon="5.92857">
        <ele>691</ele>
        <time>2012-11-19T12:39:47Z</time>
      </trkpt>
      <trkpt lat="45.37477" lon="5.92862">
        <ele>688</ele>
        <time>2012-11-19T12:39:57Z</time>
      </trkpt>
      <trkpt lat="45.37474" lon="5.9287">
        <ele>689</ele>
        <time>2012-11-19T12:40:38Z</time>
      </trkpt>
      <trkpt lat="45.37473" lon="5.92881">
        <ele>689</ele>
        <time>2012-11-19T12:40:41Z</time>
      </trkpt>
      <trkpt lat="45.37472" lon="5.92888">
        <ele>689</ele>
        <time>2012-11-19T12:40:44Z</time>
      </trkpt>
      <trkpt lat="45.37469" lon="5.92896">
        <ele>689</ele>
        <time>2012-11-19T12:40:47Z</time>
      </trkpt>
      <trkpt lat="45.37466" lon="5.92903">
        <ele>690</ele>
        <time>2012-11-19T12:40:50Z</time>
      </trkpt>
      <trkpt lat="45.37462" lon="5.92908">
        <ele>690</ele>
        <time>2012-11-19T12:40:53Z</time>
      </trkpt>
      <trkpt lat="45.37466" lon="5.92909">
        <ele>689</ele>
        <time>2012-11-19T12:41:04Z</time>
      </trkpt>
      <trkpt lat="45.37463" lon="5.92917">
        <ele>688</ele>
        <time>2012-11-19T12:41:07Z</time>
      </trkpt>
      <trkpt lat="45.37461" lon="5.92923">
        <ele>687</ele>
        <time>2012-11-19T12:41:09Z</time>
      </trkpt>
      <trkpt lat="45.37458" lon="5.92928">
        <ele>684</ele>
        <time>2012-11-19T12:41:19Z</time>
      </trkpt>
      <trkpt lat="45.37454" lon="5.9293">
        <ele>683</ele>
        <time>2012-11-19T12:41:22Z</time>
      </trkpt>
      <trkpt lat="45.37448" lon="5.92931">
        <ele>680</ele>
        <time>2012-11-19T12:41:27Z</time>
      </trkpt>
      <trkpt lat="45.37445" lon="5.9294">
        <ele>679</ele>
        <time>2012-11-19T12:41:30Z</time>
      </trkpt>
      <trkpt lat="45.37441" lon="5.92951">
        <ele>677</ele>
        <time>2012-11-19T12:41:32Z</time>
      </trkpt>
      <trkpt lat="45.37438" lon="5.92957">
        <ele>677</ele>
        <time>2012-11-19T12:41:33Z</time>
      </trkpt>
      <trkpt lat="45.37432" lon="5.92962">
        <ele>676</ele>
        <time>2012-11-19T12:41:35Z</time>
      </trkpt>
      <trkpt lat="45.37426" lon="5.92965">
        <ele>675</ele>
        <time>2012-11-19T12:41:38Z</time>
      </trkpt>
      <trkpt lat="45.37424" lon="5.92972">
        <ele>674</ele>
        <time>2012-11-19T12:41:44Z</time>
      </trkpt>
      <trkpt lat="45.37418" lon="5.9297">
        <ele>672</ele>
        <time>2012-11-19T12:41:48Z</time>
      </trkpt>
      <trkpt lat="45.37413" lon="5.92968">
        <ele>670</ele>
        <time>2012-11-19T12:41:54Z</time>
      </trkpt>
      <trkpt lat="45.37408" lon="5.92966">
        <ele>670</ele>
        <time>2012-11-19T12:41:56Z</time>
      </trkpt>
      <trkpt lat="45.37403" lon="5.92965">
        <ele>669</ele>
        <time>2012-11-19T12:41:58Z</time>
      </trkpt>
      <trkpt lat="45.37398" lon="5.92965">
        <ele>668</ele>
        <time>2012-11-19T12:42:00Z</time>
      </trkpt>
      <trkpt lat="45.37396" lon="5.92975">
        <ele>667</ele>
        <time>2012-11-19T12:42:10Z</time>
      </trkpt>
      <trkpt lat="45.3739" lon="5.92982">
        <ele>666</ele>
        <time>2012-11-19T12:42:12Z</time>
      </trkpt>
      <trkpt lat="45.37386" lon="5.9299">
        <ele>666</ele>
        <time>2012-11-19T12:42:14Z</time>
      </trkpt>
      <trkpt lat="45.37387" lon="5.92997">
        <ele>666</ele>
        <time>2012-11-19T12:42:18Z</time>
      </trkpt>
      <trkpt lat="45.37394" lon="5.92993">
        <ele>666</ele>
        <time>2012-11-19T12:42:23Z</time>
      </trkpt>
      <trkpt lat="45.37395" lon="5.92997">
        <ele>663</ele>
        <time>2012-11-19T12:42:38Z</time>
      </trkpt>
      <trkpt lat="45.3739" lon="5.93003">
        <ele>662</ele>
        <time>2012-11-19T12:42:54Z</time>
      </trkpt>
      <trkpt lat="45.37389" lon="5.93011">
        <ele>661</ele>
        <time>2012-11-19T12:42:56Z</time>
      </trkpt>
      <trkpt lat="45.37388" lon="5.93018">
        <ele>661</ele>
        <time>2012-11-19T12:42:59Z</time>
      </trkpt>
      <trkpt lat="45.37386" lon="5.93024">
        <ele>662</ele>
        <time>2012-11-19T12:43:09Z</time>
      </trkpt>
      <trkpt lat="45.37386" lon="5.93033">
        <ele>661</ele>
        <time>2012-11-19T12:43:16Z</time>
      </trkpt>
      <trkpt lat="45.37387" lon="5.9304">
        <ele>660</ele>
        <time>2012-11-19T12:43:17Z</time>
      </trkpt>
      <trkpt lat="45.37387" lon="5.93052">
        <ele>660</ele>
        <time>2012-11-19T12:43:19Z</time>
      </trkpt>
      <trkpt lat="45.37388" lon="5.93059">
        <ele>659</ele>
        <time>2012-11-19T12:43:20Z</time>
      </trkpt>
      <trkpt lat="45.37389" lon="5.9307">
        <ele>658</ele>
        <time>2012-11-19T12:43:22Z</time>
      </trkpt>
      <trkpt lat="45.37386" lon="5.93081">
        <ele>658</ele>
        <time>2012-11-19T12:43:24Z</time>
      </trkpt>
      <trkpt lat="45.37378" lon="5.9309">
        <ele>656</ele>
        <time>2012-11-19T12:43:26Z</time>
      </trkpt>
      <trkpt lat="45.37371" lon="5.93096">
        <ele>655</ele>
        <time>2012-11-19T12:43:28Z</time>
      </trkpt>
      <trkpt lat="45.37365" lon="5.931">
        <ele>654</ele>
        <time>2012-11-19T12:43:30Z</time>
      </trkpt>
      <trkpt lat="45.3736" lon="5.93104">
        <ele>653</ele>
        <time>2012-11-19T12:43:32Z</time>
      </trkpt>
      <trkpt lat="45.37355" lon="5.9311">
        <ele>651</ele>
        <time>2012-11-19T12:43:34Z</time>
      </trkpt>
      <trkpt lat="45.37351" lon="5.93116">
        <ele>649</ele>
        <time>2012-11-19T12:43:36Z</time>
      </trkpt>
      <trkpt lat="45.37346" lon="5.93124">
        <ele>648</ele>
        <time>2012-11-19T12:43:38Z</time>
      </trkpt>
      <trkpt lat="45.37343" lon="5.93132">
        <ele>647</ele>
        <time>2012-11-19T12:43:40Z</time>
      </trkpt>
      <trkpt lat="45.37341" lon="5.93138">
        <ele>645</ele>
        <time>2012-11-19T12:43:42Z</time>
      </trkpt>
      <trkpt lat="45.37337" lon="5.93143">
        <ele>643</ele>
        <time>2012-11-19T12:43:47Z</time>
      </trkpt>
      <trkpt lat="45.37335" lon="5.9315">
        <ele>641</ele>
        <time>2012-11-19T12:43:53Z</time>
      </trkpt>
      <trkpt lat="45.3733" lon="5.93157">
        <ele>639</ele>
        <time>2012-11-19T12:43:57Z</time>
      </trkpt>
      <trkpt lat="45.37322" lon="5.9316">
        <ele>637</ele>
        <time>2012-11-19T12:44:01Z</time>
      </trkpt>
      <trkpt lat="45.37319" lon="5.93158">
        <ele>634</ele>
        <time>2012-11-19T12:45:18Z</time>
      </trkpt>
      <trkpt lat="45.37314" lon="5.93161">
        <ele>634</ele>
        <time>2012-11-19T12:45:21Z</time>
      </trkpt>
      <trkpt lat="45.37311" lon="5.93167">
        <ele>634</ele>
        <time>2012-11-19T12:45:30Z</time>
      </trkpt>
      <trkpt lat="45.37309" lon="5.93174">
        <ele>633</ele>
        <time>2012-11-19T12:46:01Z</time>
      </trkpt>
      <trkpt lat="45.37304" lon="5.93179">
        <ele>632</ele>
        <time>2012-11-19T12:46:04Z</time>
      </trkpt>
      <trkpt lat="45.37303" lon="5.93187">
        <ele>631</ele>
        <time>2012-11-19T12:46:07Z</time>
      </trkpt>
      <trkpt lat="45.37304" lon="5.93194">
        <ele>629</ele>
        <time>2012-11-19T12:46:09Z</time>
      </trkpt>
      <trkpt lat="45.37303" lon="5.93205">
        <ele>623</ele>
        <time>2012-11-19T12:46:17Z</time>
      </trkpt>
      <trkpt lat="45.37299" lon="5.9321">
        <ele>620</ele>
        <time>2012-11-19T12:46:27Z</time>
      </trkpt>
      <trkpt lat="45.37303" lon="5.93214">
        <ele>619</ele>
        <time>2012-11-19T12:46:32Z</time>
      </trkpt>
      <trkpt lat="45.37308" lon="5.93215">
        <ele>618</ele>
        <time>2012-11-19T12:46:35Z</time>
      </trkpt>
      <trkpt lat="45.37305" lon="5.93223">
        <ele>605</ele>
        <time>2012-11-19T12:48:15Z</time>
      </trkpt>
      <trkpt lat="45.37302" lon="5.93228">
        <ele>604</ele>
        <time>2012-11-19T12:48:17Z</time>
      </trkpt>
      <trkpt lat="45.37298" lon="5.93241">
        <ele>595</ele>
        <time>2012-11-19T12:48:29Z</time>
      </trkpt>
      <trkpt lat="45.37302" lon="5.93247">
        <ele>591</ele>
        <time>2012-11-19T12:48:32Z</time>
      </trkpt>
      <trkpt lat="45.37303" lon="5.93254">
        <ele>585</ele>
        <time>2012-11-19T12:48:49Z</time>
      </trkpt>
      <trkpt lat="45.37302" lon="5.93262">
        <ele>584</ele>
        <time>2012-11-19T12:48:52Z</time>
      </trkpt>
      <trkpt lat="45.37301" lon="5.9327">
        <ele>583</ele>
        <time>2012-11-19T12:48:54Z</time>
      </trkpt>
      <trkpt lat="45.37298" lon="5.93279">
        <ele>583</ele>
        <time>2012-11-19T12:48:56Z</time>
      </trkpt>
      <trkpt lat="45.37294" lon="5.93287">
        <ele>582</ele>
        <time>2012-11-19T12:48:58Z</time>
      </trkpt>
      <trkpt lat="45.37288" lon="5.93297">
        <ele>582</ele>
        <time>2012-11-19T12:49:00Z</time>
      </trkpt>
      <trkpt lat="45.37286" lon="5.93307">
        <ele>581</ele>
        <time>2012-11-19T12:49:02Z</time>
      </trkpt>
      <trkpt lat="45.37284" lon="5.93317">
        <ele>581</ele>
        <time>2012-11-19T12:49:04Z</time>
      </trkpt>
      <trkpt lat="45.37282" lon="5.93326">
        <ele>581</ele>
        <time>2012-11-19T12:49:06Z</time>
      </trkpt>
      <trkpt lat="45.37279" lon="5.93334">
        <ele>581</ele>
        <time>2012-11-19T12:49:08Z</time>
      </trkpt>
      <trkpt lat="45.37276" lon="5.9334">
        <ele>581</ele>
        <time>2012-11-19T12:49:10Z</time>
      </trkpt>
      <trkpt lat="45.37273" lon="5.93347">
        <ele>581</ele>
        <time>2012-11-19T12:49:12Z</time>
      </trkpt>
      <trkpt lat="45.37272" lon="5.93353">
        <ele>581</ele>
        <time>2012-11-19T12:49:14Z</time>
      </trkpt>
      <trkpt lat="45.3727" lon="5.93359">
        <ele>581</ele>
        <time>2012-11-19T12:49:16Z</time>
      </trkpt>
      <trkpt lat="45.37266" lon="5.93365">
        <ele>581</ele>
        <time>2012-11-19T12:49:18Z</time>
      </trkpt>
      <trkpt lat="45.37262" lon="5.93373">
        <ele>581</ele>
        <time>2012-11-19T12:49:20Z</time>
      </trkpt>
      <trkpt lat="45.37258" lon="5.9338">
        <ele>581</ele>
        <time>2012-11-19T12:49:22Z</time>
      </trkpt>
      <trkpt lat="45.37255" lon="5.93386">
        <ele>580</ele>
        <time>2012-11-19T12:49:24Z</time>
      </trkpt>
      <trkpt lat="45.37251" lon="5.93391">
        <ele>580</ele>
        <time>2012-11-19T12:49:27Z</time>
      </trkpt>
      <trkpt lat="45.37247" lon="5.93397">
        <ele>580</ele>
        <time>2012-11-19T12:49:30Z</time>
      </trkpt>
      <trkpt lat="45.37247" lon="5.93403">
        <ele>579</ele>
        <time>2012-11-19T12:49:33Z</time>
      </trkpt>
      <trkpt lat="45.37247" lon="5.93412">
        <ele>579</ele>
        <time>2012-11-19T12:49:36Z</time>
      </trkpt>
      <trkpt lat="45.37247" lon="5.9342">
        <ele>578</ele>
        <time>2012-11-19T12:49:38Z</time>
      </trkpt>
      <trkpt lat="45.37246" lon="5.93427">
        <ele>577</ele>
        <time>2012-11-19T12:49:40Z</time>
      </trkpt>
      <trkpt lat="45.37242" lon="5.93433">
        <ele>576</ele>
        <time>2012-11-19T12:49:42Z</time>
      </trkpt>
      <trkpt lat="45.37238" lon="5.93437">
        <ele>575</ele>
        <time>2012-11-19T12:49:44Z</time>
      </trkpt>
      <trkpt lat="45.37233" lon="5.93438">
        <ele>573</ele>
        <time>2012-11-19T12:49:46Z</time>
      </trkpt>
      <trkpt lat="45.37228" lon="5.9344">
        <ele>572</ele>
        <time>2012-11-19T12:49:51Z</time>
      </trkpt>
      <trkpt lat="45.37222" lon="5.93441">
        <ele>571</ele>
        <time>2012-11-19T12:49:56Z</time>
      </trkpt>
      <trkpt lat="45.37215" lon="5.93441">
        <ele>570</ele>
        <time>2012-11-19T12:49:59Z</time>
      </trkpt>
      <trkpt lat="45.3721" lon="5.93443">
        <ele>569</ele>
        <time>2012-11-19T12:50:01Z</time>
      </trkpt>
      <trkpt lat="45.37206" lon="5.93448">
        <ele>568</ele>
        <time>2012-11-19T12:50:04Z</time>
      </trkpt>
      <trkpt lat="45.37201" lon="5.93451">
        <ele>567</ele>
        <time>2012-11-19T12:50:07Z</time>
      </trkpt>
      <trkpt lat="45.37196" lon="5.93453">
        <ele>565</ele>
        <time>2012-11-19T12:50:10Z</time>
      </trkpt>
      <trkpt lat="45.37191" lon="5.93454">
        <ele>564</ele>
        <time>2012-11-19T12:50:13Z</time>
      </trkpt>
      <trkpt lat="45.37191" lon="5.93461">
        <ele>562</ele>
        <time>2012-11-19T12:50:22Z</time>
      </trkpt>
      <trkpt lat="45.37192" lon="5.93469">
        <ele>561</ele>
        <time>2012-11-19T12:50:24Z</time>
      </trkpt>
      <trkpt lat="45.37191" lon="5.9348">
        <ele>560</ele>
        <time>2012-11-19T12:50:26Z</time>
      </trkpt>
      <trkpt lat="45.3719" lon="5.9349">
        <ele>560</ele>
        <time>2012-11-19T12:50:28Z</time>
      </trkpt>
      <trkpt lat="45.37189" lon="5.935">
        <ele>559</ele>
        <time>2012-11-19T12:50:30Z</time>
      </trkpt>
      <trkpt lat="45.37189" lon="5.9351">
        <ele>559</ele>
        <time>2012-11-19T12:50:32Z</time>
      </trkpt>
      <trkpt lat="45.37189" lon="5.9352">
        <ele>558</ele>
        <time>2012-11-19T12:50:34Z</time>
      </trkpt>
      <trkpt lat="45.3719" lon="5.93532">
        <ele>557</ele>
        <time>2012-11-19T12:50:36Z</time>
      </trkpt>
      <trkpt lat="45.37191" lon="5.9354">
        <ele>557</ele>
        <time>2012-11-19T12:50:37Z</time>
      </trkpt>
      <trkpt lat="45.37203" lon="5.93596">
        <ele>556</ele>
        <time>2012-11-19T12:50:41Z</time>
      </trkpt>
      <trkpt lat="45.37213" lon="5.93643">
        <ele>555</ele>
        <time>2012-11-19T12:50:45Z</time>
      </trkpt>
      <trkpt lat="45.37215" lon="5.93653">
        <ele>554</ele>
        <time>2012-11-19T12:50:47Z</time>
      </trkpt>
      <trkpt lat="45.37213" lon="5.93658">
        <ele>553</ele>
        <time>2012-11-19T12:50:49Z</time>
      </trkpt>
      <trkpt lat="45.37216" lon="5.93666">
        <ele>552</ele>
        <time>2012-11-19T12:50:53Z</time>
      </trkpt>
      <trkpt lat="45.37215" lon="5.93672">
        <ele>549</ele>
        <time>2012-11-19T12:51:02Z</time>
      </trkpt>
      <trkpt lat="45.37212" lon="5.93668">
        <ele>546</ele>
        <time>2012-11-19T12:51:16Z</time>
      </trkpt>
      <trkpt lat="45.3721" lon="5.93671">
        <ele>541</ele>
        <time>2012-11-19T12:51:47Z</time>
      </trkpt>
      <trkpt lat="45.37208" lon="5.93677">
        <ele>535</ele>
        <time>2012-11-19T12:52:05Z</time>
      </trkpt>
      <trkpt lat="45.37209" lon="5.93693">
        <ele>525</ele>
        <time>2012-11-19T12:52:24Z</time>
      </trkpt>
      <trkpt lat="45.37208" lon="5.93702">
        <ele>524</ele>
        <time>2012-11-19T12:52:26Z</time>
      </trkpt>
      <trkpt lat="45.37208" lon="5.93714">
        <ele>524</ele>
        <time>2012-11-19T12:52:28Z</time>
      </trkpt>
      <trkpt lat="45.37208" lon="5.9372">
        <ele>523</ele>
        <time>2012-11-19T12:52:29Z</time>
      </trkpt>
      <trkpt lat="45.37208" lon="5.93727">
        <ele>523</ele>
        <time>2012-11-19T12:52:30Z</time>
      </trkpt>
      <trkpt lat="45.37207" lon="5.93738">
        <ele>522</ele>
        <time>2012-11-19T12:52:32Z</time>
      </trkpt>
      <trkpt lat="45.37206" lon="5.93747">
        <ele>522</ele>
        <time>2012-11-19T12:52:34Z</time>
      </trkpt>
      <trkpt lat="45.37206" lon="5.93754">
        <ele>522</ele>
        <time>2012-11-19T12:52:35Z</time>
      </trkpt>
      <trkpt lat="45.37205" lon="5.93766">
        <ele>522</ele>
        <time>2012-11-19T12:52:37Z</time>
      </trkpt>
      <trkpt lat="45.37203" lon="5.93777">
        <ele>521</ele>
        <time>2012-11-19T12:52:39Z</time>
      </trkpt>
      <trkpt lat="45.37202" lon="5.93784">
        <ele>522</ele>
        <time>2012-11-19T12:52:40Z</time>
      </trkpt>
      <trkpt lat="45.372" lon="5.93793">
        <ele>521</ele>
        <time>2012-11-19T12:52:42Z</time>
      </trkpt>
      <trkpt lat="45.37197" lon="5.93803">
        <ele>521</ele>
        <time>2012-11-19T12:52:44Z</time>
      </trkpt>
      <trkpt lat="45.37194" lon="5.93812">
        <ele>520</ele>
        <time>2012-11-19T12:52:46Z</time>
      </trkpt>
      <trkpt lat="45.37192" lon="5.93818">
        <ele>519</ele>
        <time>2012-11-19T12:52:48Z</time>
      </trkpt>
      <trkpt lat="45.3719" lon="5.93824">
        <ele>518</ele>
        <time>2012-11-19T12:52:50Z</time>
      </trkpt>
      <trkpt lat="45.37187" lon="5.93831">
        <ele>517</ele>
        <time>2012-11-19T12:52:52Z</time>
      </trkpt>
      <trkpt lat="45.37186" lon="5.9384">
        <ele>516</ele>
        <time>2012-11-19T12:52:54Z</time>
      </trkpt>
      <trkpt lat="45.37185" lon="5.93852">
        <ele>515</ele>
        <time>2012-11-19T12:52:56Z</time>
      </trkpt>
      <trkpt lat="45.37183" lon="5.93858">
        <ele>515</ele>
        <time>2012-11-19T12:52:57Z</time>
      </trkpt>
      <trkpt lat="45.37179" lon="5.93868">
        <ele>514</ele>
        <time>2012-11-19T12:52:59Z</time>
      </trkpt>
      <trkpt lat="45.37175" lon="5.93874">
        <ele>513</ele>
        <time>2012-11-19T12:53:01Z</time>
      </trkpt>
      <trkpt lat="45.37173" lon="5.93882">
        <ele>511</ele>
        <time>2012-11-19T12:53:05Z</time>
      </trkpt>
      <trkpt lat="45.37173" lon="5.9389">
        <ele>509</ele>
        <time>2012-11-19T12:53:07Z</time>
      </trkpt>
      <trkpt lat="45.3717" lon="5.93899">
        <ele>507</ele>
        <time>2012-11-19T12:53:09Z</time>
      </trkpt>
      <trkpt lat="45.37169" lon="5.93908">
        <ele>506</ele>
        <time>2012-11-19T12:53:11Z</time>
      </trkpt>
      <trkpt lat="45.37168" lon="5.9392">
        <ele>505</ele>
        <time>2012-11-19T12:53:13Z</time>
      </trkpt>
      <trkpt lat="45.37167" lon="5.93927">
        <ele>505</ele>
        <time>2012-11-19T12:53:14Z</time>
      </trkpt>
      <trkpt lat="45.37166" lon="5.93935">
        <ele>504</ele>
        <time>2012-11-19T12:53:15Z</time>
      </trkpt>
      <trkpt lat="45.37159" lon="5.93966">
        <ele>503</ele>
        <time>2012-11-19T12:53:18Z</time>
      </trkpt>
      <trkpt lat="45.37153" lon="5.93976">
        <ele>502</ele>
        <time>2012-11-19T12:53:20Z</time>
      </trkpt>
      <trkpt lat="45.37151" lon="5.93982">
        <ele>501</ele>
        <time>2012-11-19T12:53:21Z</time>
      </trkpt>
      <trkpt lat="45.37147" lon="5.93988">
        <ele>499</ele>
        <time>2012-11-19T12:53:23Z</time>
      </trkpt>
      <trkpt lat="45.37144" lon="5.93996">
        <ele>499</ele>
        <time>2012-11-19T12:53:24Z</time>
      </trkpt>
      <trkpt lat="45.37141" lon="5.94002">
        <ele>498</ele>
        <time>2012-11-19T12:53:25Z</time>
      </trkpt>
      <trkpt lat="45.37137" lon="5.94012">
        <ele>497</ele>
        <time>2012-11-19T12:53:27Z</time>
      </trkpt>
      <trkpt lat="45.37135" lon="5.94023">
        <ele>496</ele>
        <time>2012-11-19T12:53:29Z</time>
      </trkpt>
      <trkpt lat="45.37134" lon="5.94036">
        <ele>495</ele>
        <time>2012-11-19T12:53:31Z</time>
      </trkpt>
      <trkpt lat="45.37133" lon="5.94044">
        <ele>495</ele>
        <time>2012-11-19T12:53:32Z</time>
      </trkpt>
      <trkpt lat="45.37132" lon="5.94051">
        <ele>494</ele>
        <time>2012-11-19T12:53:33Z</time>
      </trkpt>
      <trkpt lat="45.37129" lon="5.94057">
        <ele>494</ele>
        <time>2012-11-19T12:53:34Z</time>
      </trkpt>
      <trkpt lat="45.37121" lon="5.94078">
        <ele>493</ele>
        <time>2012-11-19T12:53:36Z</time>
      </trkpt>
      <trkpt lat="45.37118" lon="5.94084">
        <ele>493</ele>
        <time>2012-11-19T12:53:37Z</time>
      </trkpt>
      <trkpt lat="45.37115" lon="5.94088">
        <ele>493</ele>
        <time>2012-11-19T12:53:38Z</time>
      </trkpt>
      <trkpt lat="45.37112" lon="5.94096">
        <ele>492</ele>
        <time>2012-11-19T12:53:40Z</time>
      </trkpt>
      <trkpt lat="45.37109" lon="5.94107">
        <ele>492</ele>
        <time>2012-11-19T12:53:42Z</time>
      </trkpt>
      <trkpt lat="45.37106" lon="5.94117">
        <ele>491</ele>
        <time>2012-11-19T12:53:44Z</time>
      </trkpt>
      <trkpt lat="45.37105" lon="5.94126">
        <ele>490</ele>
        <time>2012-11-19T12:53:46Z</time>
      </trkpt>
      <trkpt lat="45.37105" lon="5.94137">
        <ele>489</ele>
        <time>2012-11-19T12:53:48Z</time>
      </trkpt>
      <trkpt lat="45.37103" lon="5.94147">
        <ele>488</ele>
        <time>2012-11-19T12:53:50Z</time>
      </trkpt>
      <trkpt lat="45.37103" lon="5.94154">
        <ele>488</ele>
        <time>2012-11-19T12:53:51Z</time>
      </trkpt>
      <trkpt lat="45.37102" lon="5.9416">
        <ele>487</ele>
        <time>2012-11-19T12:53:52Z</time>
      </trkpt>
      <trkpt lat="45.37103" lon="5.94173">
        <ele>486</ele>
        <time>2012-11-19T12:53:54Z</time>
      </trkpt>
      <trkpt lat="45.37104" lon="5.94184">
        <ele>485</ele>
        <time>2012-11-19T12:53:56Z</time>
      </trkpt>
      <trkpt lat="45.37106" lon="5.94192">
        <ele>484</ele>
        <time>2012-11-19T12:53:58Z</time>
      </trkpt>
      <trkpt lat="45.37107" lon="5.94201">
        <ele>482</ele>
        <time>2012-11-19T12:54:00Z</time>
      </trkpt>
      <trkpt lat="45.37105" lon="5.94209">
        <ele>480</ele>
        <time>2012-11-19T12:54:02Z</time>
      </trkpt>
      <trkpt lat="45.37103" lon="5.94216">
        <ele>478</ele>
        <time>2012-11-19T12:54:04Z</time>
      </trkpt>
      <trkpt lat="45.371" lon="5.94222">
        <ele>476</ele>
        <time>2012-11-19T12:54:06Z</time>
      </trkpt>
      <trkpt lat="45.37094" lon="5.94227">
        <ele>473</ele>
        <time>2012-11-19T12:54:08Z</time>
      </trkpt>
      <trkpt lat="45.3709" lon="5.94229">
        <ele>471</ele>
        <time>2012-11-19T12:54:09Z</time>
      </trkpt>
      <trkpt lat="45.37082" lon="5.9423">
        <ele>469</ele>
        <time>2012-11-19T12:54:10Z</time>
      </trkpt>
      <trkpt lat="45.37064" lon="5.94228">
        <ele>460</ele>
        <time>2012-11-19T12:54:15Z</time>
      </trkpt>
      <trkpt lat="45.37063" lon="5.94222">
        <ele>458</ele>
        <time>2012-11-19T12:54:17Z</time>
      </trkpt>
      <trkpt lat="45.37059" lon="5.94184">
        <ele>443</ele>
        <time>2012-11-19T12:54:33Z</time>
      </trkpt>
      <trkpt lat="45.3706" lon="5.94181">
        <ele>440</ele>
        <time>2012-11-19T12:54:40Z</time>
      </trkpt>
      <trkpt lat="45.37056" lon="5.94176">
        <ele>436</ele>
        <time>2012-11-19T12:54:48Z</time>
      </trkpt>
      <trkpt lat="45.37052" lon="5.94171">
        <ele>432</ele>
        <time>2012-11-19T12:54:55Z</time>
      </trkpt>
      <trkpt lat="45.37056" lon="5.9417">
        <ele>427</ele>
        <time>2012-11-19T12:55:16Z</time>
      </trkpt>
      <trkpt lat="45.37056" lon="5.94172">
        <ele>426</ele>
        <time>2012-11-19T12:55:36Z</time>
      </trkpt>
      <trkpt lat="45.37052" lon="5.94177">
        <ele>425</ele>
        <time>2012-11-19T12:55:44Z</time>
      </trkpt>
      <trkpt lat="45.3705" lon="5.94186">
        <ele>425</ele>
        <time>2012-11-19T12:55:47Z</time>
      </trkpt>
      <trkpt lat="45.37049" lon="5.94193">
        <ele>424</ele>
        <time>2012-11-19T12:55:50Z</time>
      </trkpt>
      <trkpt lat="45.37046" lon="5.94201">
        <ele>423</ele>
        <time>2012-11-19T12:55:53Z</time>
      </trkpt>
      <trkpt lat="45.37044" lon="5.94208">
        <ele>423</ele>
        <time>2012-11-19T12:55:55Z</time>
      </trkpt>
      <trkpt lat="45.37042" lon="5.94215">
        <ele>422</ele>
        <time>2012-11-19T12:55:57Z</time>
      </trkpt>
      <trkpt lat="45.37041" lon="5.94221">
        <ele>421</ele>
        <time>2012-11-19T12:55:59Z</time>
      </trkpt>
      <trkpt lat="45.37039" lon="5.9423">
        <ele>420</ele>
        <time>2012-11-19T12:56:02Z</time>
      </trkpt>
      <trkpt lat="45.37038" lon="5.94236">
        <ele>419</ele>
        <time>2012-11-19T12:56:04Z</time>
      </trkpt>
      <trkpt lat="45.37038" lon="5.94244">
        <ele>419</ele>
        <time>2012-11-19T12:56:06Z</time>
      </trkpt>
      <trkpt lat="45.37041" lon="5.94251">
        <ele>418</ele>
        <time>2012-11-19T12:56:08Z</time>
      </trkpt>
      <trkpt lat="45.37046" lon="5.94258">
        <ele>418</ele>
        <time>2012-11-19T12:56:10Z</time>
      </trkpt>
      <trkpt lat="45.37049" lon="5.94263">
        <ele>418</ele>
        <time>2012-11-19T12:56:11Z</time>
      </trkpt>
      <trkpt lat="45.37052" lon="5.94268">
        <ele>418</ele>
        <time>2012-11-19T12:56:12Z</time>
      </trkpt>
      <trkpt lat="45.37056" lon="5.9428">
        <ele>418</ele>
        <time>2012-11-19T12:56:13Z</time>
      </trkpt>
      <trkpt lat="45.37057" lon="5.9429">
        <ele>418</ele>
        <time>2012-11-19T12:56:14Z</time>
      </trkpt>
      <trkpt lat="45.37058" lon="5.94299">
        <ele>418</ele>
        <time>2012-11-19T12:56:15Z</time>
      </trkpt>
      <trkpt lat="45.3706" lon="5.94307">
        <ele>418</ele>
        <time>2012-11-19T12:56:16Z</time>
      </trkpt>
      <trkpt lat="45.37058" lon="5.94314">
        <ele>417</ele>
        <time>2012-11-19T12:56:17Z</time>
      </trkpt>
      <trkpt lat="45.37054" lon="5.94323">
        <ele>417</ele>
        <time>2012-11-19T12:56:19Z</time>
      </trkpt>
      <trkpt lat="45.3705" lon="5.9433">
        <ele>416</ele>
        <time>2012-11-19T12:56:20Z</time>
      </trkpt>
      <trkpt lat="45.37046" lon="5.94338">
        <ele>415</ele>
        <time>2012-11-19T12:56:22Z</time>
      </trkpt>
      <trkpt lat="45.37039" lon="5.94347">
        <ele>413</ele>
        <time>2012-11-19T12:56:24Z</time>
      </trkpt>
      <trkpt lat="45.37035" lon="5.94352">
        <ele>412</ele>
        <time>2012-11-19T12:56:25Z</time>
      </trkpt>
      <trkpt lat="45.37031" lon="5.94358">
        <ele>411</ele>
        <time>2012-11-19T12:56:26Z</time>
      </trkpt>
      <trkpt lat="45.37024" lon="5.94359">
        <ele>411</ele>
        <time>2012-11-19T12:56:27Z</time>
      </trkpt>
      <trkpt lat="45.37019" lon="5.94362">
        <ele>411</ele>
        <time>2012-11-19T12:56:28Z</time>
      </trkpt>
      <trkpt lat="45.37013" lon="5.94362">
        <ele>410</ele>
        <time>2012-11-19T12:56:29Z</time>
      </trkpt>
      <trkpt lat="45.37008" lon="5.94362">
        <ele>409</ele>
        <time>2012-11-19T12:56:30Z</time>
      </trkpt>
      <trkpt lat="45.37002" lon="5.94361">
        <ele>409</ele>
        <time>2012-11-19T12:56:31Z</time>
      </trkpt>
      <trkpt lat="45.36994" lon="5.94352">
        <ele>408</ele>
        <time>2012-11-19T12:56:33Z</time>
      </trkpt>
      <trkpt lat="45.3699" lon="5.94348">
        <ele>408</ele>
        <time>2012-11-19T12:56:34Z</time>
      </trkpt>
      <trkpt lat="45.36985" lon="5.94346">
        <ele>407</ele>
        <time>2012-11-19T12:56:35Z</time>
      </trkpt>
      <trkpt lat="45.36979" lon="5.94348">
        <ele>407</ele>
        <time>2012-11-19T12:56:36Z</time>
      </trkpt>
      <trkpt lat="45.36971" lon="5.9435">
        <ele>406</ele>
        <time>2012-11-19T12:56:37Z</time>
      </trkpt>
      <trkpt lat="45.36964" lon="5.94351">
        <ele>406</ele>
        <time>2012-11-19T12:56:38Z</time>
      </trkpt>
      <trkpt lat="45.36958" lon="5.94352">
        <ele>405</ele>
        <time>2012-11-19T12:56:39Z</time>
      </trkpt>
      <trkpt lat="45.36952" lon="5.94355">
        <ele>405</ele>
        <time>2012-11-19T12:56:40Z</time>
      </trkpt>
      <trkpt lat="45.36937" lon="5.94374">
        <ele>403</ele>
        <time>2012-11-19T12:56:42Z</time>
      </trkpt>
      <trkpt lat="45.3693" lon="5.94382">
        <ele>403</ele>
        <time>2012-11-19T12:56:43Z</time>
      </trkpt>
      <trkpt lat="45.36922" lon="5.9439">
        <ele>402</ele>
        <time>2012-11-19T12:56:44Z</time>
      </trkpt>
      <trkpt lat="45.36914" lon="5.94395">
        <ele>401</ele>
        <time>2012-11-19T12:56:45Z</time>
      </trkpt>
      <trkpt lat="45.36905" lon="5.94402">
        <ele>400</ele>
        <time>2012-11-19T12:56:46Z</time>
      </trkpt>
      <trkpt lat="45.36898" lon="5.94406">
        <ele>399</ele>
        <time>2012-11-19T12:56:47Z</time>
      </trkpt>
      <trkpt lat="45.3689" lon="5.94411">
        <ele>398</ele>
        <time>2012-11-19T12:56:48Z</time>
      </trkpt>
      <trkpt lat="45.36882" lon="5.94416">
        <ele>398</ele>
        <time>2012-11-19T12:56:49Z</time>
      </trkpt>
      <trkpt lat="45.36877" lon="5.94427">
        <ele>397</ele>
        <time>2012-11-19T12:56:50Z</time>
      </trkpt>
      <trkpt lat="45.36869" lon="5.94436">
        <ele>396</ele>
        <time>2012-11-19T12:56:51Z</time>
      </trkpt>
      <trkpt lat="45.3686" lon="5.94443">
        <ele>395</ele>
        <time>2012-11-19T12:56:52Z</time>
      </trkpt>
      <trkpt lat="45.36844" lon="5.94443">
        <ele>395</ele>
        <time>2012-11-19T12:56:53Z</time>
      </trkpt>
      <trkpt lat="45.3684" lon="5.94446">
        <ele>394</ele>
        <time>2012-11-19T12:56:54Z</time>
      </trkpt>
      <trkpt lat="45.36832" lon="5.94453">
        <ele>393</ele>
        <time>2012-11-19T12:56:55Z</time>
      </trkpt>
      <trkpt lat="45.36824" lon="5.94458">
        <ele>392</ele>
        <time>2012-11-19T12:56:56Z</time>
      </trkpt>
      <trkpt lat="45.36816" lon="5.94462">
        <ele>391</ele>
        <time>2012-11-19T12:56:57Z</time>
      </trkpt>
      <trkpt lat="45.36811" lon="5.94464">
        <ele>390</ele>
        <time>2012-11-19T12:56:58Z</time>
      </trkpt>
      <trkpt lat="45.36807" lon="5.94465">
        <ele>390</ele>
        <time>2012-11-19T12:56:59Z</time>
      </trkpt>
      <trkpt lat="45.36801" lon="5.94466">
        <ele>389</ele>
        <time>2012-11-19T12:57:00Z</time>
      </trkpt>
      <trkpt lat="45.36795" lon="5.94466">
        <ele>388</ele>
        <time>2012-11-19T12:57:01Z</time>
      </trkpt>
      <trkpt lat="45.3679" lon="5.94465">
        <ele>388</ele>
        <time>2012-11-19T12:57:02Z</time>
      </trkpt>
      <trkpt lat="45.36768" lon="5.94462">
        <ele>386</ele>
        <time>2012-11-19T12:57:05Z</time>
      </trkpt>
      <trkpt lat="45.36762" lon="5.94461">
        <ele>386</ele>
        <time>2012-11-19T12:57:06Z</time>
      </trkpt>
      <trkpt lat="45.36753" lon="5.9446">
        <ele>385</ele>
        <time>2012-11-19T12:57:08Z</time>
      </trkpt>
      <trkpt lat="45.36748" lon="5.94459">
        <ele>384</ele>
        <time>2012-11-19T12:57:09Z</time>
      </trkpt>
      <trkpt lat="45.36741" lon="5.9446">
        <ele>384</ele>
        <time>2012-11-19T12:57:10Z</time>
      </trkpt>
      <trkpt lat="45.36735" lon="5.9446">
        <ele>383</ele>
        <time>2012-11-19T12:57:11Z</time>
      </trkpt>
      <trkpt lat="45.36729" lon="5.94462">
        <ele>383</ele>
        <time>2012-11-19T12:57:12Z</time>
      </trkpt>
      <trkpt lat="45.36721" lon="5.94464">
        <ele>382</ele>
        <time>2012-11-19T12:57:13Z</time>
      </trkpt>
      <trkpt lat="45.36715" lon="5.94466">
        <ele>382</ele>
        <time>2012-11-19T12:57:14Z</time>
      </trkpt>
      <trkpt lat="45.36709" lon="5.94468">
        <ele>382</ele>
        <time>2012-11-19T12:57:15Z</time>
      </trkpt>
      <trkpt lat="45.36691" lon="5.94477">
        <ele>381</ele>
        <time>2012-11-19T12:57:18Z</time>
      </trkpt>
      <trkpt lat="45.36686" lon="5.9448">
        <ele>380</ele>
        <time>2012-11-19T12:57:19Z</time>
      </trkpt>
      <trkpt lat="45.36666" lon="5.94492">
        <ele>380</ele>
        <time>2012-11-19T12:57:22Z</time>
      </trkpt>
      <trkpt lat="45.36659" lon="5.94498">
        <ele>379</ele>
        <time>2012-11-19T12:57:23Z</time>
      </trkpt>
      <trkpt lat="45.3665" lon="5.94504">
        <ele>379</ele>
        <time>2012-11-19T12:57:24Z</time>
      </trkpt>
      <trkpt lat="45.36643" lon="5.94509">
        <ele>379</ele>
        <time>2012-11-19T12:57:25Z</time>
      </trkpt>
      <trkpt lat="45.36636" lon="5.94514">
        <ele>378</ele>
        <time>2012-11-19T12:57:26Z</time>
      </trkpt>
      <trkpt lat="45.36628" lon="5.9452">
        <ele>378</ele>
        <time>2012-11-19T12:57:27Z</time>
      </trkpt>
      <trkpt lat="45.36621" lon="5.94526">
        <ele>378</ele>
        <time>2012-11-19T12:57:28Z</time>
      </trkpt>
      <trkpt lat="45.36614" lon="5.94532">
        <ele>377</ele>
        <time>2012-11-19T12:57:29Z</time>
      </trkpt>
      <trkpt lat="45.36609" lon="5.94536">
        <ele>377</ele>
        <time>2012-11-19T12:57:30Z</time>
      </trkpt>
      <trkpt lat="45.36598" lon="5.94558">
        <ele>376</ele>
        <time>2012-11-19T12:57:33Z</time>
      </trkpt>
      <trkpt lat="45.36588" lon="5.94567">
        <ele>375</ele>
        <time>2012-11-19T12:57:34Z</time>
      </trkpt>
      <trkpt lat="45.36581" lon="5.94573">
        <ele>374</ele>
        <time>2012-11-19T12:57:35Z</time>
      </trkpt>
      <trkpt lat="45.36575" lon="5.94579">
        <ele>374</ele>
        <time>2012-11-19T12:57:36Z</time>
      </trkpt>
      <trkpt lat="45.36571" lon="5.94583">
        <ele>373</ele>
        <time>2012-11-19T12:57:37Z</time>
      </trkpt>
      <trkpt lat="45.36551" lon="5.94631">
        <ele>371</ele>
        <time>2012-11-19T12:57:42Z</time>
      </trkpt>
      <trkpt lat="45.3655" lon="5.94641">
        <ele>370</ele>
        <time>2012-11-19T12:57:43Z</time>
      </trkpt>
      <trkpt lat="45.36549" lon="5.94652">
        <ele>369</ele>
        <time>2012-11-19T12:57:44Z</time>
      </trkpt>
      <trkpt lat="45.3654" lon="5.9466">
        <ele>369</ele>
        <time>2012-11-19T12:57:45Z</time>
      </trkpt>
      <trkpt lat="45.36536" lon="5.94677">
        <ele>368</ele>
        <time>2012-11-19T12:57:47Z</time>
      </trkpt>
      <trkpt lat="45.36533" lon="5.94689">
        <ele>365</ele>
        <time>2012-11-19T12:57:49Z</time>
      </trkpt>
      <trkpt lat="45.3653" lon="5.94699">
        <ele>364</ele>
        <time>2012-11-19T12:57:50Z</time>
      </trkpt>
      <trkpt lat="45.36528" lon="5.94707">
        <ele>362</ele>
        <time>2012-11-19T12:57:51Z</time>
      </trkpt>
      <trkpt lat="45.36525" lon="5.94716">
        <ele>361</ele>
        <time>2012-11-19T12:57:52Z</time>
      </trkpt>
      <trkpt lat="45.36524" lon="5.9472">
        <ele>356</ele>
        <time>2012-11-19T12:57:59Z</time>
      </trkpt>
    </trkseg>
  </trk>
  <rte>
    <name><![CDATA[19 nov. 2012 13:19:38]]></name>
    <cmt><![CDATA[19 nov. 2012 13:19:38]]></cmt>
      <rtept lat="45.37717" lon="5.92043">
        <ele>880.3</ele>
      </rtept>
      <rtept lat="45.36524" lon="5.9472">
        <ele>356</ele>
      </rtept>
    </rte>
</gpx>